sensor_id;sensor_type;location;lat;lon;timestamp;temperature;humidity
22360;DHT22;11347;52.030;4.690;2022-11-23T00:01:47;14.70;56.50
22360;DHT22;11347;52.030;4.690;2022-11-23T00:04:13;14.70;56.60
22360;DHT22;11347;52.030;4.690;2022-11-23T00:06:39;14.70;56.60
22360;DHT22;11347;52.030;4.690;2022-11-23T00:09:05;14.70;56.70
22360;DHT22;11347;52.030;4.690;2022-11-23T00:11:34;14.70;56.60
22360;DHT22;11347;52.030;4.690;2022-11-23T00:13:59;14.70;56.60
22360;DHT22;11347;52.030;4.690;2022-11-23T00:16:27;14.70;56.60
22360;DHT22;11347;52.030;4.690;2022-11-23T00:18:56;14.70;56.70
22360;DHT22;11347;52.030;4.690;2022-11-23T00:21:23;14.70;56.70
22360;DHT22;11347;52.030;4.690;2022-11-23T00:23:49;14.70;56.70
22360;DHT22;11347;52.030;4.690;2022-11-23T00:26:16;14.70;56.90
22360;DHT22;11347;52.030;4.690;2022-11-23T00:28:42;14.70;57.10
22360;DHT22;11347;52.030;4.690;2022-11-23T00:31:13;14.70;57.40
22360;DHT22;11347;52.030;4.690;2022-11-23T00:33:39;14.70;57.50
22360;DHT22;11347;52.030;4.690;2022-11-23T00:36:07;14.70;57.80
22360;DHT22;11347;52.030;4.690;2022-11-23T00:38:34;14.70;58.10
22360;DHT22;11347;52.030;4.690;2022-11-23T00:41:02;14.70;58.20
22360;DHT22;11347;52.030;4.690;2022-11-23T00:43:29;14.70;58.40
22360;DHT22;11347;52.030;4.690;2022-11-23T00:46:07;14.70;58.50
22360;DHT22;11347;52.030;4.690;2022-11-23T00:48:33;14.70;58.60
22360;DHT22;11347;52.030;4.690;2022-11-23T00:51:00;14.70;58.70
22360;DHT22;11347;52.030;4.690;2022-11-23T00:53:26;14.80;59.50
22360;DHT22;11347;52.030;4.690;2022-11-23T00:55:53;14.70;59.10
22360;DHT22;11347;52.030;4.690;2022-11-23T00:58:19;14.70;59.20
22360;DHT22;11347;52.030;4.690;2022-11-23T01:00:45;14.80;59.40
22360;DHT22;11347;52.030;4.690;2022-11-23T01:03:10;14.80;59.40
22360;DHT22;11347;52.030;4.690;2022-11-23T01:05:38;14.70;59.30
22360;DHT22;11347;52.030;4.690;2022-11-23T01:08:05;14.80;59.50
22360;DHT22;11347;52.030;4.690;2022-11-23T01:10:31;14.70;59.40
22360;DHT22;11347;52.030;4.690;2022-11-23T01:12:57;14.80;59.50
22360;DHT22;11347;52.030;4.690;2022-11-23T01:15:23;14.80;59.60
22360;DHT22;11347;52.030;4.690;2022-11-23T01:17:49;14.80;59.60
22360;DHT22;11347;52.030;4.690;2022-11-23T01:20:14;14.80;59.50
22360;DHT22;11347;52.030;4.690;2022-11-23T01:22:40;14.80;59.60
22360;DHT22;11347;52.030;4.690;2022-11-23T01:25:06;14.80;59.60
22360;DHT22;11347;52.030;4.690;2022-11-23T01:27:32;14.80;59.80
22360;DHT22;11347;52.030;4.690;2022-11-23T01:29:58;14.80;59.70
22360;DHT22;11347;52.030;4.690;2022-11-23T01:32:23;14.80;59.80
22360;DHT22;11347;52.030;4.690;2022-11-23T01:34:49;14.80;59.90
22360;DHT22;11347;52.030;4.690;2022-11-23T01:37:14;14.80;60.00
22360;DHT22;11347;52.030;4.690;2022-11-23T01:39:40;14.80;60.00
22360;DHT22;11347;52.030;4.690;2022-11-23T01:42:05;14.80;59.90
22360;DHT22;11347;52.030;4.690;2022-11-23T01:44:34;14.80;59.80
22360;DHT22;11347;52.030;4.690;2022-11-23T01:47:05;14.80;60.00
22360;DHT22;11347;52.030;4.690;2022-11-23T01:52:03;14.80;59.80
22360;DHT22;11347;52.030;4.690;2022-11-23T01:54:35;14.80;59.90
22360;DHT22;11347;52.030;4.690;2022-11-23T01:57:06;14.80;59.80
22360;DHT22;11347;52.030;4.690;2022-11-23T01:59:33;14.80;59.90
22360;DHT22;11347;52.030;4.690;2022-11-23T02:02:00;14.80;59.80
22360;DHT22;11347;52.030;4.690;2022-11-23T02:04:33;14.80;59.80
22360;DHT22;11347;52.030;4.690;2022-11-23T02:07:02;14.80;59.80
22360;DHT22;11347;52.030;4.690;2022-11-23T02:09:31;14.80;59.80
22360;DHT22;11347;52.030;4.690;2022-11-23T02:11:58;14.80;59.90
22360;DHT22;11347;52.030;4.690;2022-11-23T02:14:24;14.80;59.90
22360;DHT22;11347;52.030;4.690;2022-11-23T02:16:50;14.80;59.90
22360;DHT22;11347;52.030;4.690;2022-11-23T02:19:52;14.80;60.00
22360;DHT22;11347;52.030;4.690;2022-11-23T02:28:04;14.80;60.00
22360;DHT22;11347;52.030;4.690;2022-11-23T02:30:31;14.80;60.10
22360;DHT22;11347;52.030;4.690;2022-11-23T02:32:57;14.80;60.30
22360;DHT22;11347;52.030;4.690;2022-11-23T02:35:23;14.80;60.20
22360;DHT22;11347;52.030;4.690;2022-11-23T02:37:49;14.80;60.10
22360;DHT22;11347;52.030;4.690;2022-11-23T02:40:30;14.80;60.00
22360;DHT22;11347;52.030;4.690;2022-11-23T02:42:56;14.80;60.00
22360;DHT22;11347;52.030;4.690;2022-11-23T02:48:07;14.90;60.10
22360;DHT22;11347;52.030;4.690;2022-11-23T02:50:33;14.90;60.20
22360;DHT22;11347;52.030;4.690;2022-11-23T02:52:58;14.90;60.20
22360;DHT22;11347;52.030;4.690;2022-11-23T02:55:24;14.90;60.10
22360;DHT22;11347;52.030;4.690;2022-11-23T02:57:49;14.90;60.00
22360;DHT22;11347;52.030;4.690;2022-11-23T03:00:16;14.90;60.00
22360;DHT22;11347;52.030;4.690;2022-11-23T03:02:42;14.90;60.00
22360;DHT22;11347;52.030;4.690;2022-11-23T03:05:07;14.90;60.00
22360;DHT22;11347;52.030;4.690;2022-11-23T03:07:33;14.90;59.80
22360;DHT22;11347;52.030;4.690;2022-11-23T03:09:59;14.90;59.80
22360;DHT22;11347;52.030;4.690;2022-11-23T03:12:25;14.90;59.70
22360;DHT22;11347;52.030;4.690;2022-11-23T03:14:50;14.90;59.70
22360;DHT22;11347;52.030;4.690;2022-11-23T03:17:16;14.90;59.80
22360;DHT22;11347;52.030;4.690;2022-11-23T03:19:42;14.90;59.70
22360;DHT22;11347;52.030;4.690;2022-11-23T03:22:07;14.90;59.60
22360;DHT22;11347;52.030;4.690;2022-11-23T03:24:33;14.80;59.50
22360;DHT22;11347;52.030;4.690;2022-11-23T03:26:59;14.90;59.70
22360;DHT22;11347;52.030;4.690;2022-11-23T03:29:24;14.90;59.70
22360;DHT22;11347;52.030;4.690;2022-11-23T03:31:52;14.80;59.50
22360;DHT22;11347;52.030;4.690;2022-11-23T03:34:17;14.90;59.70
22360;DHT22;11347;52.030;4.690;2022-11-23T03:36:43;14.90;59.60
22360;DHT22;11347;52.030;4.690;2022-11-23T03:39:09;14.80;59.60
22360;DHT22;11347;52.030;4.690;2022-11-23T03:41:35;14.90;59.80
22360;DHT22;11347;52.030;4.690;2022-11-23T03:44:00;14.90;59.80
22360;DHT22;11347;52.030;4.690;2022-11-23T03:46:26;14.90;59.90
22360;DHT22;11347;52.030;4.690;2022-11-23T03:48:51;14.90;59.80
22360;DHT22;11347;52.030;4.690;2022-11-23T03:51:17;14.90;59.80
22360;DHT22;11347;52.030;4.690;2022-11-23T03:53:43;14.90;59.80
22360;DHT22;11347;52.030;4.690;2022-11-23T03:56:09;14.90;59.60
22360;DHT22;11347;52.030;4.690;2022-11-23T03:58:35;14.90;59.70
22360;DHT22;11347;52.030;4.690;2022-11-23T04:01:00;14.90;59.60
22360;DHT22;11347;52.030;4.690;2022-11-23T04:03:26;14.90;59.80
22360;DHT22;11347;52.030;4.690;2022-11-23T04:05:51;14.90;59.80
22360;DHT22;11347;52.030;4.690;2022-11-23T04:08:17;14.90;59.80
22360;DHT22;11347;52.030;4.690;2022-11-23T04:10:43;14.90;59.80
22360;DHT22;11347;52.030;4.690;2022-11-23T04:13:09;14.90;59.80
22360;DHT22;11347;52.030;4.690;2022-11-23T04:15:34;14.90;59.80
22360;DHT22;11347;52.030;4.690;2022-11-23T04:18:00;14.90;59.70
22360;DHT22;11347;52.030;4.690;2022-11-23T04:20:25;14.90;59.60
22360;DHT22;11347;52.030;4.690;2022-11-23T04:22:52;14.90;59.60
22360;DHT22;11347;52.030;4.690;2022-11-23T04:25:18;14.90;59.60
22360;DHT22;11347;52.030;4.690;2022-11-23T04:27:44;14.90;59.60
22360;DHT22;11347;52.030;4.690;2022-11-23T04:30:10;14.90;59.60
22360;DHT22;11347;52.030;4.690;2022-11-23T04:32:39;14.90;59.60
22360;DHT22;11347;52.030;4.690;2022-11-23T04:35:04;14.90;59.60
22360;DHT22;11347;52.030;4.690;2022-11-23T04:37:30;14.90;59.50
22360;DHT22;11347;52.030;4.690;2022-11-23T04:39:56;14.90;59.50
22360;DHT22;11347;52.030;4.690;2022-11-23T04:42:21;14.90;59.50
22360;DHT22;11347;52.030;4.690;2022-11-23T04:44:47;14.90;59.60
22360;DHT22;11347;52.030;4.690;2022-11-23T04:47:12;14.90;59.50
22360;DHT22;11347;52.030;4.690;2022-11-23T04:49:38;14.90;59.60
22360;DHT22;11347;52.030;4.690;2022-11-23T04:52:04;14.90;59.50
22360;DHT22;11347;52.030;4.690;2022-11-23T04:54:30;14.90;59.50
22360;DHT22;11347;52.030;4.690;2022-11-23T04:56:55;14.90;59.50
22360;DHT22;11347;52.030;4.690;2022-11-23T04:59:21;14.90;59.50
22360;DHT22;11347;52.030;4.690;2022-11-23T05:01:50;14.90;60.10
22360;DHT22;11347;52.030;4.690;2022-11-23T05:04:17;14.90;59.50
22360;DHT22;11347;52.030;4.690;2022-11-23T05:06:44;14.90;59.50
22360;DHT22;11347;52.030;4.690;2022-11-23T05:09:09;14.80;59.30
22360;DHT22;11347;52.030;4.690;2022-11-23T05:11:35;14.90;59.40
22360;DHT22;11347;52.030;4.690;2022-11-23T05:14:00;14.90;59.40
22360;DHT22;11347;52.030;4.690;2022-11-23T05:16:26;14.90;59.40
22360;DHT22;11347;52.030;4.690;2022-11-23T05:18:51;14.90;60.10
22360;DHT22;11347;52.030;4.690;2022-11-23T05:21:17;14.90;59.50
22360;DHT22;11347;52.030;4.690;2022-11-23T05:23:42;14.90;59.50
22360;DHT22;11347;52.030;4.690;2022-11-23T05:26:08;14.90;59.50
22360;DHT22;11347;52.030;4.690;2022-11-23T05:28:33;14.90;59.60
22360;DHT22;11347;52.030;4.690;2022-11-23T05:30:59;14.90;59.50
22360;DHT22;11347;52.030;4.690;2022-11-23T05:33:24;14.90;59.40
22360;DHT22;11347;52.030;4.690;2022-11-23T05:35:50;14.90;59.50
22360;DHT22;11347;52.030;4.690;2022-11-23T05:38:16;14.90;59.60
22360;DHT22;11347;52.030;4.690;2022-11-23T05:40:43;14.90;59.60
22360;DHT22;11347;52.030;4.690;2022-11-23T05:43:08;14.90;59.60
22360;DHT22;11347;52.030;4.690;2022-11-23T05:45:34;14.90;59.40
22360;DHT22;11347;52.030;4.690;2022-11-23T05:47:59;14.90;59.40
22360;DHT22;11347;52.030;4.690;2022-11-23T05:50:26;14.90;59.50
22360;DHT22;11347;52.030;4.690;2022-11-23T05:52:54;14.90;59.40
22360;DHT22;11347;52.030;4.690;2022-11-23T05:55:19;14.90;59.60
22360;DHT22;11347;52.030;4.690;2022-11-23T05:57:45;14.90;59.60
22360;DHT22;11347;52.030;4.690;2022-11-23T06:00:11;14.90;59.60
22360;DHT22;11347;52.030;4.690;2022-11-23T06:02:37;14.90;59.60
22360;DHT22;11347;52.030;4.690;2022-11-23T06:05:03;14.90;59.50
22360;DHT22;11347;52.030;4.690;2022-11-23T06:07:31;14.90;59.50
22360;DHT22;11347;52.030;4.690;2022-11-23T06:09:57;14.90;59.40
22360;DHT22;11347;52.030;4.690;2022-11-23T06:12:22;14.90;59.40
22360;DHT22;11347;52.030;4.690;2022-11-23T06:14:48;14.90;59.30
22360;DHT22;11347;52.030;4.690;2022-11-23T06:17:13;14.90;59.30
22360;DHT22;11347;52.030;4.690;2022-11-23T06:19:39;14.90;59.20
22360;DHT22;11347;52.030;4.690;2022-11-23T06:22:05;14.90;59.10
22360;DHT22;11347;52.030;4.690;2022-11-23T06:24:31;14.90;59.10
22360;DHT22;11347;52.030;4.690;2022-11-23T06:26:57;14.90;59.00
22360;DHT22;11347;52.030;4.690;2022-11-23T06:29:22;14.90;59.00
22360;DHT22;11347;52.030;4.690;2022-11-23T06:31:48;14.90;59.10
22360;DHT22;11347;52.030;4.690;2022-11-23T06:34:13;14.90;59.00
22360;DHT22;11347;52.030;4.690;2022-11-23T06:36:39;14.90;59.00
22360;DHT22;11347;52.030;4.690;2022-11-23T06:39:04;14.90;59.10
22360;DHT22;11347;52.030;4.690;2022-11-23T06:41:30;14.90;59.10
22360;DHT22;11347;52.030;4.690;2022-11-23T06:43:56;14.90;59.10
22360;DHT22;11347;52.030;4.690;2022-11-23T06:46:21;14.90;59.10
22360;DHT22;11347;52.030;4.690;2022-11-23T06:48:47;14.90;59.20
22360;DHT22;11347;52.030;4.690;2022-11-23T06:51:14;14.80;59.00
22360;DHT22;11347;52.030;4.690;2022-11-23T06:53:39;14.80;59.00
22360;DHT22;11347;52.030;4.690;2022-11-23T06:56:05;14.80;59.00
22360;DHT22;11347;52.030;4.690;2022-11-23T06:58:31;14.80;59.00
22360;DHT22;11347;52.030;4.690;2022-11-23T07:00:59;14.80;59.00
22360;DHT22;11347;52.030;4.690;2022-11-23T07:03:25;14.80;59.10
22360;DHT22;11347;52.030;4.690;2022-11-23T07:05:51;14.80;59.10
22360;DHT22;11347;52.030;4.690;2022-11-23T07:08:16;14.80;59.10
22360;DHT22;11347;52.030;4.690;2022-11-23T07:10:42;14.70;58.90
22360;DHT22;11347;52.030;4.690;2022-11-23T07:13:09;14.70;59.10
22360;DHT22;11347;52.030;4.690;2022-11-23T07:15:36;14.70;59.10
22360;DHT22;11347;52.030;4.690;2022-11-23T07:18:01;14.70;59.10
22360;DHT22;11347;52.030;4.690;2022-11-23T07:20:27;14.70;59.40
22360;DHT22;11347;52.030;4.690;2022-11-23T07:22:59;14.70;59.40
22360;DHT22;11347;52.030;4.690;2022-11-23T07:25:26;14.70;59.50
22360;DHT22;11347;52.030;4.690;2022-11-23T07:27:55;14.70;59.60
22360;DHT22;11347;52.030;4.690;2022-11-23T07:30:21;14.70;59.60
22360;DHT22;11347;52.030;4.690;2022-11-23T07:32:46;14.70;59.60
22360;DHT22;11347;52.030;4.690;2022-11-23T07:35:12;14.70;59.50
22360;DHT22;11347;52.030;4.690;2022-11-23T07:37:37;14.70;59.60
22360;DHT22;11347;52.030;4.690;2022-11-23T07:40:03;14.70;59.90
22360;DHT22;11347;52.030;4.690;2022-11-23T07:42:29;14.70;59.90
22360;DHT22;11347;52.030;4.690;2022-11-23T07:44:55;14.70;60.00
22360;DHT22;11347;52.030;4.690;2022-11-23T07:47:20;14.70;60.00
22360;DHT22;11347;52.030;4.690;2022-11-23T07:49:46;14.70;60.00
22360;DHT22;11347;52.030;4.690;2022-11-23T07:52:11;14.70;59.90
22360;DHT22;11347;52.030;4.690;2022-11-23T07:54:40;14.70;59.90
22360;DHT22;11347;52.030;4.690;2022-11-23T07:57:06;14.70;59.90
22360;DHT22;11347;52.030;4.690;2022-11-23T07:59:31;14.70;59.80
22360;DHT22;11347;52.030;4.690;2022-11-23T08:01:57;14.70;59.60
22360;DHT22;11347;52.030;4.690;2022-11-23T08:04:22;14.70;59.60
22360;DHT22;11347;52.030;4.690;2022-11-23T08:06:48;14.70;59.80
22360;DHT22;11347;52.030;4.690;2022-11-23T08:09:13;14.70;59.60
22360;DHT22;11347;52.030;4.690;2022-11-23T08:11:39;14.80;59.50
22360;DHT22;11347;52.030;4.690;2022-11-23T08:14:05;14.80;59.60
22360;DHT22;11347;52.030;4.690;2022-11-23T08:16:31;14.80;59.40
22360;DHT22;11347;52.030;4.690;2022-11-23T08:18:56;14.80;59.30
22360;DHT22;11347;52.030;4.690;2022-11-23T08:21:22;14.80;58.90
22360;DHT22;11347;52.030;4.690;2022-11-23T08:23:47;14.80;58.70
22360;DHT22;11347;52.030;4.690;2022-11-23T08:26:13;14.80;58.60
22360;DHT22;11347;52.030;4.690;2022-11-23T08:28:38;14.80;58.30
22360;DHT22;11347;52.030;4.690;2022-11-23T08:31:06;14.80;58.20
22360;DHT22;11347;52.030;4.690;2022-11-23T08:33:31;14.80;58.10
22360;DHT22;11347;52.030;4.690;2022-11-23T08:36:03;14.80;58.10
22360;DHT22;11347;52.030;4.690;2022-11-23T08:38:28;14.80;58.00
22360;DHT22;11347;52.030;4.690;2022-11-23T08:40:58;14.80;57.90
22360;DHT22;11347;52.030;4.690;2022-11-23T08:43:24;14.80;57.90
22360;DHT22;11347;52.030;4.690;2022-11-23T08:45:53;14.80;57.80
22360;DHT22;11347;52.030;4.690;2022-11-23T08:48:19;14.80;57.80
22360;DHT22;11347;52.030;4.690;2022-11-23T08:50:44;14.80;57.70
22360;DHT22;11347;52.030;4.690;2022-11-23T08:53:10;14.80;57.70
22360;DHT22;11347;52.030;4.690;2022-11-23T08:55:35;14.80;57.60
22360;DHT22;11347;52.030;4.690;2022-11-23T08:58:01;14.80;57.50
22360;DHT22;11347;52.030;4.690;2022-11-23T09:00:27;14.80;57.50
22360;DHT22;11347;52.030;4.690;2022-11-23T09:02:53;14.80;57.50
22360;DHT22;11347;52.030;4.690;2022-11-23T09:05:18;14.90;57.50
22360;DHT22;11347;52.030;4.690;2022-11-23T09:07:44;14.80;57.20
22360;DHT22;11347;52.030;4.690;2022-11-23T09:10:09;14.90;57.20
22360;DHT22;11347;52.030;4.690;2022-11-23T09:12:35;14.90;57.30
22360;DHT22;11347;52.030;4.690;2022-11-23T09:15:01;14.80;57.00
22360;DHT22;11347;52.030;4.690;2022-11-23T09:17:26;14.90;57.10
22360;DHT22;11347;52.030;4.690;2022-11-23T09:19:52;14.90;57.10
22360;DHT22;11347;52.030;4.690;2022-11-23T09:22:17;14.90;57.00
22360;DHT22;11347;52.030;4.690;2022-11-23T09:24:43;14.90;57.00
22360;DHT22;11347;52.030;4.690;2022-11-23T09:27:08;14.90;56.90
22360;DHT22;11347;52.030;4.690;2022-11-23T09:29:34;14.90;56.90
22360;DHT22;11347;52.030;4.690;2022-11-23T09:32:01;14.90;56.90
22360;DHT22;11347;52.030;4.690;2022-11-23T09:34:27;14.90;56.80
22360;DHT22;11347;52.030;4.690;2022-11-23T09:36:55;14.90;56.80
22360;DHT22;11347;52.030;4.690;2022-11-23T09:39:21;14.90;56.70
22360;DHT22;11347;52.030;4.690;2022-11-23T09:41:56;14.90;56.60
22360;DHT22;11347;52.030;4.690;2022-11-23T09:52:32;15.00;56.80
22360;DHT22;11347;52.030;4.690;2022-11-23T09:55:32;15.00;56.70
22360;DHT22;11347;52.030;4.690;2022-11-23T09:58:12;15.00;56.80
22360;DHT22;11347;52.030;4.690;2022-11-23T10:00:52;15.00;56.60
22360;DHT22;11347;52.030;4.690;2022-11-23T10:03:21;15.00;56.60
22360;DHT22;11347;52.030;4.690;2022-11-23T10:14:33;15.00;56.30
22360;DHT22;11347;52.030;4.690;2022-11-23T10:22:58;15.00;56.30
22360;DHT22;11347;52.030;4.690;2022-11-23T10:25:26;15.00;56.20
22360;DHT22;11347;52.030;4.690;2022-11-23T10:27:57;15.00;56.20
22360;DHT22;11347;52.030;4.690;2022-11-23T10:30:24;15.00;56.10
22360;DHT22;11347;52.030;4.690;2022-11-23T10:32:59;15.10;56.20
22360;DHT22;11347;52.030;4.690;2022-11-23T10:35:32;15.00;55.90
22360;DHT22;11347;52.030;4.690;2022-11-23T10:38:12;15.10;56.00
22360;DHT22;11347;52.030;4.690;2022-11-23T10:40:42;15.10;56.00
22360;DHT22;11347;52.030;4.690;2022-11-23T10:43:17;15.10;55.90
22360;DHT22;11347;52.030;4.690;2022-11-23T10:45:44;15.10;55.80
22360;DHT22;11347;52.030;4.690;2022-11-23T10:48:10;15.10;55.70
22360;DHT22;11347;52.030;4.690;2022-11-23T10:50:37;15.10;55.70
22360;DHT22;11347;52.030;4.690;2022-11-23T10:55:32;15.10;55.60
22360;DHT22;11347;52.030;4.690;2022-11-23T10:57:59;15.10;55.70
22360;DHT22;11347;52.030;4.690;2022-11-23T11:00:27;15.10;55.60
22360;DHT22;11347;52.030;4.690;2022-11-23T11:02:57;15.10;55.40
22360;DHT22;11347;52.030;4.690;2022-11-23T11:05:36;15.10;55.50
22360;DHT22;11347;52.030;4.690;2022-11-23T11:08:24;15.10;55.40
22360;DHT22;11347;52.030;4.690;2022-11-23T11:11:38;15.10;55.30
22360;DHT22;11347;52.030;4.690;2022-11-23T11:16:36;15.10;55.20
22360;DHT22;11347;52.030;4.690;2022-11-23T11:19:28;15.10;55.20
22360;DHT22;11347;52.030;4.690;2022-11-23T11:21:55;15.10;55.00
22360;DHT22;11347;52.030;4.690;2022-11-23T11:24:44;15.10;54.90
22360;DHT22;11347;52.030;4.690;2022-11-23T11:27:19;15.10;54.90
22360;DHT22;11347;52.030;4.690;2022-11-23T11:35:19;15.10;54.80
22360;DHT22;11347;52.030;4.690;2022-11-23T11:37:49;15.10;54.70
22360;DHT22;11347;52.030;4.690;2022-11-23T11:40:32;15.10;54.80
22360;DHT22;11347;52.030;4.690;2022-11-23T11:43:03;15.20;54.80
22360;DHT22;11347;52.030;4.690;2022-11-23T11:45:39;15.20;54.70
22360;DHT22;11347;52.030;4.690;2022-11-23T11:48:11;15.20;54.50
22360;DHT22;11347;52.030;4.690;2022-11-23T11:50:50;15.20;54.60
22360;DHT22;11347;52.030;4.690;2022-11-23T11:53:35;15.20;54.60
22360;DHT22;11347;52.030;4.690;2022-11-23T11:56:13;15.20;54.50
22360;DHT22;11347;52.030;4.690;2022-11-23T11:58:47;15.20;54.40
22360;DHT22;11347;52.030;4.690;2022-11-23T12:01:32;15.20;54.40
22360;DHT22;11347;52.030;4.690;2022-11-23T12:04:05;15.20;54.30
22360;DHT22;11347;52.030;4.690;2022-11-23T12:07:06;15.20;54.40
22360;DHT22;11347;52.030;4.690;2022-11-23T12:09:38;15.20;54.30
22360;DHT22;11347;52.030;4.690;2022-11-23T12:12:11;15.20;54.20
22360;DHT22;11347;52.030;4.690;2022-11-23T12:14:38;15.20;54.50
22360;DHT22;11347;52.030;4.690;2022-11-23T12:24:55;15.20;53.90
22360;DHT22;11347;52.030;4.690;2022-11-23T12:35:54;15.30;54.00
22360;DHT22;11347;52.030;4.690;2022-11-23T12:38:54;15.30;54.00
22360;DHT22;11347;52.030;4.690;2022-11-23T12:49:49;15.20;53.90
22360;DHT22;11347;52.030;4.690;2022-11-23T12:58:40;15.20;53.90
22360;DHT22;11347;52.030;4.690;2022-11-23T13:01:16;15.20;53.90
22360;DHT22;11347;52.030;4.690;2022-11-23T13:17:23;15.20;54.60
22360;DHT22;11347;52.030;4.690;2022-11-23T13:19:55;15.20;54.70
22360;DHT22;11347;52.030;4.690;2022-11-23T13:22:26;15.20;54.90
22360;DHT22;11347;52.030;4.690;2022-11-23T13:25:01;15.20;55.00
22360;DHT22;11347;52.030;4.690;2022-11-23T13:27:28;15.20;55.00
22360;DHT22;11347;52.030;4.690;2022-11-23T13:29:55;15.20;55.20
22360;DHT22;11347;52.030;4.690;2022-11-23T13:40:31;15.20;55.40
22360;DHT22;11347;52.030;4.690;2022-11-23T13:43:03;15.20;55.60
22360;DHT22;11347;52.030;4.690;2022-11-23T13:45:33;15.20;55.70
22360;DHT22;11347;52.030;4.690;2022-11-23T13:50:37;15.20;55.80
22360;DHT22;11347;52.030;4.690;2022-11-23T13:53:27;15.20;55.90
22360;DHT22;11347;52.030;4.690;2022-11-23T13:55:56;15.20;55.90
22360;DHT22;11347;52.030;4.690;2022-11-23T14:00:52;15.20;56.10
22360;DHT22;11347;52.030;4.690;2022-11-23T14:06:32;15.20;56.20
22360;DHT22;11347;52.030;4.690;2022-11-23T14:14:55;15.20;56.20
22360;DHT22;11347;52.030;4.690;2022-11-23T14:34:36;15.10;56.50
22360;DHT22;11347;52.030;4.690;2022-11-23T14:42:33;15.10;56.70
22360;DHT22;11347;52.030;4.690;2022-11-23T14:45:03;15.10;56.70
22360;DHT22;11347;52.030;4.690;2022-11-23T14:47:30;15.10;56.80
22360;DHT22;11347;52.030;4.690;2022-11-23T14:49:57;15.10;56.90
22360;DHT22;11347;52.030;4.690;2022-11-23T14:52:26;15.10;56.90
22360;DHT22;11347;52.030;4.690;2022-11-23T14:54:55;15.10;57.00
22360;DHT22;11347;52.030;4.690;2022-11-23T14:57:25;15.10;56.90
22360;DHT22;11347;52.030;4.690;2022-11-23T14:59:54;15.10;57.10
22360;DHT22;11347;52.030;4.690;2022-11-23T15:02:38;15.10;57.00
22360;DHT22;11347;52.030;4.690;2022-11-23T15:07:48;15.10;57.10
22360;DHT22;11347;52.030;4.690;2022-11-23T15:10:35;15.10;57.20
22360;DHT22;11347;52.030;4.690;2022-11-23T15:13:18;15.10;57.20
22360;DHT22;11347;52.030;4.690;2022-11-23T15:15:45;15.10;57.20
22360;DHT22;11347;52.030;4.690;2022-11-23T15:18:11;15.10;57.30
22360;DHT22;11347;52.030;4.690;2022-11-23T15:20:42;15.10;57.30
22360;DHT22;11347;52.030;4.690;2022-11-23T15:23:20;15.10;57.40
22360;DHT22;11347;52.030;4.690;2022-11-23T15:25:53;15.10;57.30
22360;DHT22;11347;52.030;4.690;2022-11-23T15:28:25;15.10;57.30
22360;DHT22;11347;52.030;4.690;2022-11-23T15:30:51;15.10;57.50
22360;DHT22;11347;52.030;4.690;2022-11-23T15:33:19;15.10;57.50
22360;DHT22;11347;52.030;4.690;2022-11-23T15:35:45;15.10;57.50
22360;DHT22;11347;52.030;4.690;2022-11-23T15:38:13;15.10;57.50
22360;DHT22;11347;52.030;4.690;2022-11-23T15:40:42;15.10;57.50
22360;DHT22;11347;52.030;4.690;2022-11-23T15:43:12;15.10;57.50
22360;DHT22;11347;52.030;4.690;2022-11-23T15:48:20;15.10;57.50
22360;DHT22;11347;52.030;4.690;2022-11-23T15:50:54;15.10;57.60
22360;DHT22;11347;52.030;4.690;2022-11-23T15:53:28;15.10;57.60
22360;DHT22;11347;52.030;4.690;2022-11-23T15:55:58;15.10;57.50
22360;DHT22;11347;52.030;4.690;2022-11-23T15:58:24;15.10;57.50
22360;DHT22;11347;52.030;4.690;2022-11-23T16:00:53;15.10;57.60
22360;DHT22;11347;52.030;4.690;2022-11-23T16:06:07;15.10;57.50
22360;DHT22;11347;52.030;4.690;2022-11-23T16:08:35;15.10;57.50
22360;DHT22;11347;52.030;4.690;2022-11-23T16:11:01;15.10;57.70
22360;DHT22;11347;52.030;4.690;2022-11-23T16:13:38;15.10;57.70
22360;DHT22;11347;52.030;4.690;2022-11-23T16:16:13;15.10;57.60
22360;DHT22;11347;52.030;4.690;2022-11-23T16:18:43;15.10;57.60
22360;DHT22;11347;52.030;4.690;2022-11-23T16:21:17;15.10;57.60
22360;DHT22;11347;52.030;4.690;2022-11-23T16:23:48;15.20;57.70
22360;DHT22;11347;52.030;4.690;2022-11-23T16:26:14;15.20;57.80
22360;DHT22;11347;52.030;4.690;2022-11-23T16:28:52;15.10;57.60
22360;DHT22;11347;52.030;4.690;2022-11-23T16:31:37;15.20;57.60
22360;DHT22;11347;52.030;4.690;2022-11-23T16:34:15;15.20;57.70
22360;DHT22;11347;52.030;4.690;2022-11-23T16:36:40;15.10;57.60
22360;DHT22;11347;52.030;4.690;2022-11-23T16:39:06;15.20;57.80
22360;DHT22;11347;52.030;4.690;2022-11-23T16:41:32;15.20;57.80
22360;DHT22;11347;52.030;4.690;2022-11-23T16:43:57;15.10;57.70
22360;DHT22;11347;52.030;4.690;2022-11-23T16:46:23;15.20;57.90
22360;DHT22;11347;52.030;4.690;2022-11-23T16:48:48;15.20;58.00
22360;DHT22;11347;52.030;4.690;2022-11-23T16:51:14;15.20;57.90
22360;DHT22;11347;52.030;4.690;2022-11-23T16:53:41;15.20;58.00
22360;DHT22;11347;52.030;4.690;2022-11-23T16:56:22;15.20;58.00
22360;DHT22;11347;52.030;4.690;2022-11-23T16:58:48;15.20;58.00
22360;DHT22;11347;52.030;4.690;2022-11-23T17:01:26;15.10;57.90
22360;DHT22;11347;52.030;4.690;2022-11-23T17:03:52;15.20;58.70
22360;DHT22;11347;52.030;4.690;2022-11-23T17:06:18;15.20;58.00
22360;DHT22;11347;52.030;4.690;2022-11-23T17:08:48;15.10;57.80
22360;DHT22;11347;52.030;4.690;2022-11-23T17:11:18;15.20;58.10
22360;DHT22;11347;52.030;4.690;2022-11-23T17:13:45;15.20;58.00
22360;DHT22;11347;52.030;4.690;2022-11-23T17:16:16;15.10;58.00
22360;DHT22;11347;52.030;4.690;2022-11-23T17:18:42;15.20;58.00
22360;DHT22;11347;52.030;4.690;2022-11-23T17:21:07;15.20;58.00
22360;DHT22;11347;52.030;4.690;2022-11-23T17:23:33;15.20;58.00
22360;DHT22;11347;52.030;4.690;2022-11-23T17:25:59;15.20;58.00
22360;DHT22;11347;52.030;4.690;2022-11-23T17:28:24;15.20;58.00
22360;DHT22;11347;52.030;4.690;2022-11-23T17:30:52;15.20;58.00
22360;DHT22;11347;52.030;4.690;2022-11-23T17:33:18;15.20;58.00
22360;DHT22;11347;52.030;4.690;2022-11-23T17:35:43;15.20;58.00
22360;DHT22;11347;52.030;4.690;2022-11-23T17:38:14;15.10;57.90
22360;DHT22;11347;52.030;4.690;2022-11-23T17:40:40;15.20;58.00
22360;DHT22;11347;52.030;4.690;2022-11-23T17:43:06;15.20;58.00
22360;DHT22;11347;52.030;4.690;2022-11-23T17:45:32;15.20;58.00
22360;DHT22;11347;52.030;4.690;2022-11-23T17:47:57;15.20;58.00
22360;DHT22;11347;52.030;4.690;2022-11-23T17:50:23;15.20;58.00
22360;DHT22;11347;52.030;4.690;2022-11-23T17:52:49;15.20;58.00
22360;DHT22;11347;52.030;4.690;2022-11-23T17:55:15;15.10;58.00
22360;DHT22;11347;52.030;4.690;2022-11-23T17:57:41;15.20;58.10
22360;DHT22;11347;52.030;4.690;2022-11-23T18:00:16;15.10;58.00